WFLO2: Webbers Falls Lock & Dam & Reservoir (L&D 16)

Data processed at Sat Mar 10 2018 23:31


All information presented herein is the property of the government of the United States of America and may be revised or deleted at any time without prior notice.
Dissemination of this information without the expressed written consent of the Public Affairs Office, Tulsa District U.S. Army Corps of Engineers is strictly prohibited.
These data are gathered electronically and, as presented, have not undergone any form of quality control. These data are not guaranteed to be valid or correct.
Go to home page.
Go to station list.

Upstream stations:

Downstream station:
Previous Day
Next Day
Current Day
    
SHEF ID:       WFLO2     Webbers Falls Lock & Dam
STATION TYPE:  NAVIGATION LOCK
Normal Pool:  Bottom =   487.00, Top =   490.00

               PRECIP ELEVATION   STORAGE   TW-ELEV    INFLOW   RELEASE  AIR-TEMP  WIND-DIRWIND-SPEED REL-HUMID SOLAR-RAD   VOLTAGE  BAT-LOAD
                   in        ft     ac-ft        ft       cfs       cfs         F       deg       mph         %      W/m2      volt      volt
              Ccp-Rev   Ccp-Rev   Ccp-Rev   Ccp-Rev  Regi-Rev  Regi-Rev   Ccp-Rev   Ccp-Rev   Ccp-Rev   Ccp-Rev   Ccp-Rev   Ccp-Rev   Ccp-Rev
(US/Central)
03/08 00:00      0.00    489.47    164084    461.30     40298     33200     29.97     50.10      1.00     75.39      0.00     13.50     13.29
03/08 01:00      0.00    489.54    164880    461.36     41523     33200     29.79     10.00      1.70     80.81      0.00     13.50     13.29
03/08 02:00      0.00    489.56    165107    461.36     39529     33200     29.17      8.90      1.80     87.91      0.00     13.50     13.29
03/08 03:00      0.00    489.60    165562    461.36     38703     33200     32.77    317.90      5.10     92.19      0.00     13.50     13.29
03/08 04:00      0.00    489.63    165903    461.37     37327     33200     32.90    324.50      5.00     95.57      0.00     13.50     13.29
03/08 05:00      0.00    489.67    166358    461.39     35952     33200     31.98    325.90      5.00     98.31      0.00     13.50     13.29
03/08 06:00      0.00    489.69    166585    461.39     36227     33200     31.14    339.60      3.20     96.62      0.00     13.50     13.29
03/08 07:00      0.00    489.66    166244    461.45     46479     33200     27.57     31.40      1.50     95.95      0.20     13.50     13.29
03/08 08:00      0.00    489.71    166813    461.33     38738     33200     30.58    329.30      4.10     93.29    116.50     13.50     13.29
03/08 09:00      0.00    490.18    172293    460.13     38343     32600     35.31    328.80      3.50     71.61    364.70     13.50     13.29
03/08 10:00      0.00    489.88    168746    461.22     38498     32600     39.87    306.40      2.10     54.98    579.40     13.50     13.29
03/08 11:00      0.00    489.89    168859    461.14     35076     32600     44.60    296.30      1.30     39.29    692.90     13.50     13.29
03/08 12:00      0.00    489.87    168632    461.19     23604     32600     48.72    200.20      1.10     31.92    751.40     13.51     13.29
03/08 13:00      0.00    489.80    167836    461.25     29023     32600     50.90    176.80      1.90     30.52    727.70     13.50     13.05
03/08 14:00      0.00    489.79    167722    461.23     23520     32600     52.45    179.50      2.30     31.17    810.70     13.51     13.29
03/08 15:00      0.00    489.75    167267    461.23     28198     32600     53.31    148.50      4.80     26.67    757.80     13.51     13.29
03/08 16:00      0.00    489.56    165107    461.63     28153     32600     55.27    142.30      5.90     25.57    593.90     13.51     13.29
03/08 17:00      0.00    489.71    166813    461.17     24256     32600     55.45    157.70      6.50     27.84    351.90     13.51     13.29
03/08 18:00      0.00    489.65    166130    461.08     29164     31000     55.22    153.60      6.20     29.93    124.90     13.51     13.29
03/08 19:00      0.00    489.68    166472    461.02     34072     31000     51.64    155.50      3.00     41.17      0.00     13.51     13.29
03/08 20:00      0.00    489.66    166244    461.01     28524     31000     46.47    142.10      2.00     49.02      0.00     13.51     13.29
03/08 21:00      0.00    489.66    166244    461.02     30450     31000     44.13    140.90      2.20     51.54      0.00     13.50     13.29
03/08 22:00      0.00    489.62    165789    461.04     31475     31000     43.77    154.40      2.90     55.39      0.00     13.50     13.29
03/08 23:00      0.00    489.63    165903    461.04     21147     31000     42.80    145.70      1.90     59.31      0.00     13.50     13.29